Ns Captain — A8GW4 — position and weather

sailwx.info

Track history (hours):
 
Tides and Currents Weather Stations Pressure Air Temp Water Temp Dewpoint Dewpoint Depression Visibility Wind Speed Wind Dir Waves Ship Positions

Ns Captain

Last reported at 2018-Feb-21 01:40 UTC. Time now 2018-Feb-21 17:28 UTC.
Position N 39°44' E 024°01'.

Length 243 m; draft 12.5 m.

Type: Ship. MMSI: 636012659.

Date/timePositionNaut miles runAvg speedWind from/ knotsBaromVisibWave heightAir tempDewpointWater temp
2018-Feb-21 01:40N 39°44' E 024°01'211.8
2018-Feb-21 01:28N 39°44' E 024°04'612.1
2018-Feb-21 01:00N 39°43' E 024°11'  
2018-Feb-14 07:51N 44°24' E 037°18'412.4
2018-Feb-14 07:29N 44°26' E 037°23'612.5
2018-Feb-14 07:00N 44°30' E 037°30'612.3
2018-Feb-14 06:30N 44°33' E 037°37'611.8
2018-Feb-14 06:00N 44°36' E 037°45'5 9.9
2018-Feb-14 05:30N 44°39' E 037°50'3 6.8
2018-Feb-14 05:00N 44°42' E 037°50'0 0.3
2018-Feb-14 04:28N 44°42' E 037°50'0 0.0
2018-Feb-14 03:58N 44°42' E 037°50'0 0.0
2018-Feb-14 03:28N 44°42' E 037°50'0 0.0
2018-Feb-14 02:58N 44°42' E 037°50'0 0.0
2018-Feb-14 02:28N 44°42' E 037°50'0 0.0
2018-Feb-14 01:58N 44°42' E 037°50'0 0.0
2018-Feb-14 01:28N 44°42' E 037°50'0 0.0
2018-Feb-14 00:58N 44°42' E 037°50'0 0.0
2018-Feb-14 00:28N 44°42' E 037°50'0 0.0
2018-Feb-13 23:58N 44°42' E 037°50'0 0.0
2018-Feb-13 23:28N 44°42' E 037°50'0 0.0
2018-Feb-13 22:58N 44°42' E 037°50'0 0.0
2018-Feb-13 22:28N 44°42' E 037°50'0 0.0
2018-Feb-13 21:58N 44°42' E 037°50'0 0.0
2018-Feb-13 21:28N 44°42' E 037°50'0 0.0
2018-Feb-13 20:58N 44°42' E 037°50'0 0.0
2018-Feb-13 20:28N 44°42' E 037°50'0 0.0
2018-Feb-13 19:58N 44°42' E 037°50'0 0.0
2018-Feb-13 19:28N 44°42' E 037°50'0 0.0
2018-Feb-13 18:58N 44°42' E 037°50'0 0.0
2018-Feb-13 18:28N 44°42' E 037°50'0 0.0
2018-Feb-13 17:58N 44°42' E 037°50'0 0.0
2018-Feb-13 17:28N 44°42' E 037°50'0 0.0
2018-Feb-13 16:58N 44°42' E 037°50'0 0.0
2018-Feb-13 16:28N 44°42' E 037°50'0 0.0
2018-Feb-13 15:58N 44°42' E 037°50'0 0.0
2018-Feb-13 15:28N 44°42' E 037°50'0 0.0
2018-Feb-13 14:58N 44°42' E 037°50'0 0.0
2018-Feb-13 14:28N 44°42' E 037°50'0 0.0
2018-Feb-13 13:58N 44°42' E 037°50'0 0.0
2018-Feb-13 13:28N 44°42' E 037°50'0 0.0
2018-Feb-13 12:58N 44°42' E 037°50'0 0.0
2018-Feb-13 12:28N 44°42' E 037°50'0 0.0
2018-Feb-13 11:58N 44°42' E 037°50'0 0.0
2018-Feb-13 11:28N 44°42' E 037°50'0 0.0
2018-Feb-13 10:58N 44°42' E 037°50'0 0.0
2018-Feb-13 10:28N 44°42' E 037°50'0 0.0
2018-Feb-13 09:58N 44°42' E 037°50'0 0.0
2018-Feb-13 09:28N 44°42' E 037°50'0 0.0
2018-Feb-13 08:58N 44°42' E 037°50'0 0.0
2018-Feb-13 08:28N 44°42' E 037°50'0 0.0
2018-Feb-13 07:58N 44°42' E 037°50'0 0.0
2018-Feb-13 07:28N 44°42' E 037°50'0 0.0
2018-Feb-13 06:58N 44°42' E 037°50'0 0.0
2018-Feb-13 06:28N 44°42' E 037°50'0 0.0
2018-Feb-13 05:58N 44°42' E 037°50'0 0.0
2018-Feb-13 05:28N 44°42' E 037°50'0 0.0
2018-Feb-13 04:58N 44°42' E 037°50'0 0.0
2018-Feb-13 04:28N 44°42' E 037°50'0 0.0
2018-Feb-13 04:01N 44°42' E 037°50'0 0.8
2018-Feb-13 03:31N 44°42' E 037°50'2 4.5
2018-Feb-13 03:00N 44°40' E 037°51'5 9.8
2018-Feb-13 02:31N 44°35' E 037°52'510.8
2018-Feb-13 02:01N 44°30' E 037°49'611.5
2018-Feb-13 01:30N 44°25' E 037°44'1 2.4
2018-Feb-13 00:59N 44°25' E 037°42'1 1.6
2018-Feb-13 00:28N 44°24' E 037°41'4 1.7
2018-Feb-12 22:03N 44°22' E 037°36'0 2.2
2018-Feb-12 22:00N 44°22' E 037°36'1 2.5
2018-Feb-12 21:30N 44°21' E 037°34'2 3.6
2018-Feb-12 20:58N 44°23' E 037°36'2 2.7
2018-Feb-12 20:19N 44°25' E 037°37'1 2.5
2018-Feb-12 19:47N 44°24' E 037°36'1 2.6
2018-Feb-12 19:29N 44°23' E 037°35'2 3.4
2018-Feb-12 18:58N 44°22' E 037°33'1 2.8
2018-Feb-12 18:31N 44°22' E 037°35'1 2.6
2018-Feb-12 18:00N 44°22' E 037°36'1 2.8
2018-Feb-12 17:30N 44°22' E 037°38'1 2.7
2018-Feb-12 17:00N 44°22' E 037°40'1 2.6
2018-Feb-12 16:29N 44°22' E 037°42'1 2.4
2018-Feb-12 15:59N 44°24' E 037°42'1 2.8
2018-Feb-12 15:30N 44°25' E 037°41'1 1.4
2018-Feb-12 14:59N 44°26' E 037°41'1 2.2
2018-Feb-12 14:29N 44°25' E 037°42'1 2.4
2018-Feb-12 14:01N 44°25' E 037°44'1 2.4
2018-Feb-12 13:30N 44°25' E 037°46'1 2.3
2018-Feb-12 13:01N 44°24' E 037°47'2 4.3
2018-Feb-12 12:31N 44°23' E 037°50'0 0.8
2018-Feb-12 12:00N 44°23' E 037°50'1 2.7
2018-Feb-12 11:30N 44°24' E 037°48'1 2.6
2018-Feb-12 11:00N 44°24' E 037°46'1 2.7
2018-Feb-12 10:30N 44°24' E 037°44'1 2.7
2018-Feb-12 10:00N 44°25' E 037°42'1 2.6
2018-Feb-12 09:30N 44°25' E 037°41'2 3.8
2018-Feb-12 09:00N 44°25' E 037°43'2 4.1
2018-Feb-12 08:30N 44°24' E 037°46'2 4.0
2018-Feb-12 08:01N 44°23' E 037°48'2 3.9
2018-Feb-12 07:30N 44°22' E 037°51'9 1.0
2018-Feb-11 22:42N 44°20' E 037°38'0 1.8
2018-Feb-11 22:27N 44°20' E 037°39'1 1.9
2018-Feb-11 21:59N 44°20' E 037°40'1 2.0
2018-Feb-11 21:30N 44°19' E 037°41'1 1.9
2018-Feb-11 20:56N 44°19' E 037°43'1 1.9
2018-Feb-11 20:27N 44°19' E 037°44'1 2.0
2018-Feb-11 20:01N 44°18' E 037°45'1 2.2
2018-Feb-11 19:26N 44°20' E 037°46'4 8.2
2018-Feb-11 18:56N 44°23' E 037°43'3 8.2
2018-Feb-11 18:30N 44°26' E 037°40'1 1.3
2018-Feb-11 17:54N 44°25' E 037°40'1 1.7
2018-Feb-11 17:30N 44°25' E 037°40'1 1.7
2018-Feb-11 16:45N 44°24' E 037°41'1 1.8
2018-Feb-11 16:26N 44°23' E 037°42'3 1.9
2018-Feb-11 14:53N 44°22' E 037°45'1 1.7
2018-Feb-11 14:26N 44°22' E 037°46'1 1.7
2018-Feb-11 13:57N 44°21' E 037°47'1 1.6
2018-Feb-11 13:30N 44°21' E 037°48'1 1.1
2018-Feb-11 13:00N 44°21' E 037°49'1 1.1
2018-Feb-11 12:29N 44°21' E 037°50'0 0.9
2018-Feb-11 12:00N 44°21' E 037°50'2 4.7
2018-Feb-11 11:30N 44°20' E 037°47'4 8.0
2018-Feb-11 11:00N 44°18' E 037°42'4 0.8
2018-Feb-11 05:34N 44°19' E 037°48'1 1.5
2018-Feb-11 05:04N 44°20' E 037°48'0 1.8
2018-Feb-11 05:00N 44°20' E 037°48'2 4.2
2018-Feb-11 04:30N 44°22' E 037°46'4 7.1
2018-Feb-11 04:00N 44°24' E 037°42'  
Track history (hours):
 
Tides and Currents Weather Stations Pressure Air Temp Water Temp Dewpoint Dewpoint Depression Visibility Wind Speed Wind Dir Waves Ship Positions

Ns Captain

Last reported at 2018-Feb-21 01:40 UTC. Time now 2018-Feb-21 17:28 UTC.
Position N 39°44' E 024°01'.

Length 243 m; draft 12.5 m.

Type: Ship. MMSI: 636012659.

Date/timePositionNaut miles runAvg speedWind from/ knotsBaromVisibWave heightAir tempDewpointWater temp
2018-Feb-21 01:40N 39°44' E 024°01'211.8
2018-Feb-21 01:28N 39°44' E 024°04'612.1
2018-Feb-21 01:00N 39°43' E 024°11'  
2018-Feb-14 07:51N 44°24' E 037°18'412.4
2018-Feb-14 07:29N 44°26' E 037°23'612.5
2018-Feb-14 07:00N 44°30' E 037°30'612.3
2018-Feb-14 06:30N 44°33' E 037°37'611.8
2018-Feb-14 06:00N 44°36' E 037°45'5 9.9
2018-Feb-14 05:30N 44°39' E 037°50'3 6.8
2018-Feb-14 05:00N 44°42' E 037°50'0 0.3
2018-Feb-14 04:28N 44°42' E 037°50'0 0.0
2018-Feb-14 03:58N 44°42' E 037°50'0 0.0
2018-Feb-14 03:28N 44°42' E 037°50'0 0.0
2018-Feb-14 02:58N 44°42' E 037°50'0 0.0
2018-Feb-14 02:28N 44°42' E 037°50'0 0.0
2018-Feb-14 01:58N 44°42' E 037°50'0 0.0
2018-Feb-14 01:28N 44°42' E 037°50'0 0.0
2018-Feb-14 00:58N 44°42' E 037°50'0 0.0
2018-Feb-14 00:28N 44°42' E 037°50'0 0.0
2018-Feb-13 23:58N 44°42' E 037°50'0 0.0
2018-Feb-13 23:28N 44°42' E 037°50'0 0.0
2018-Feb-13 22:58N 44°42' E 037°50'0 0.0
2018-Feb-13 22:28N 44°42' E 037°50'0 0.0
2018-Feb-13 21:58N 44°42' E 037°50'0 0.0
2018-Feb-13 21:28N 44°42' E 037°50'0 0.0
2018-Feb-13 20:58N 44°42' E 037°50'0 0.0
2018-Feb-13 20:28N 44°42' E 037°50'0 0.0
2018-Feb-13 19:58N 44°42' E 037°50'0 0.0
2018-Feb-13 19:28N 44°42' E 037°50'0 0.0
2018-Feb-13 18:58N 44°42' E 037°50'0 0.0
2018-Feb-13 18:28N 44°42' E 037°50'0 0.0
2018-Feb-13 17:58N 44°42' E 037°50'0 0.0
2018-Feb-13 17:28N 44°42' E 037°50'0 0.0
2018-Feb-13 16:58N 44°42' E 037°50'0 0.0
2018-Feb-13 16:28N 44°42' E 037°50'0 0.0
2018-Feb-13 15:58N 44°42' E 037°50'0 0.0
2018-Feb-13 15:28N 44°42' E 037°50'0 0.0
2018-Feb-13 14:58N 44°42' E 037°50'0 0.0
2018-Feb-13 14:28N 44°42' E 037°50'0 0.0
2018-Feb-13 13:58N 44°42' E 037°50'0 0.0
2018-Feb-13 13:28N 44°42' E 037°50'0 0.0
2018-Feb-13 12:58N 44°42' E 037°50'0 0.0
2018-Feb-13 12:28N 44°42' E 037°50'0 0.0
2018-Feb-13 11:58N 44°42' E 037°50'0 0.0
2018-Feb-13 11:28N 44°42' E 037°50'0 0.0
2018-Feb-13 10:58N 44°42' E 037°50'0 0.0
2018-Feb-13 10:28N 44°42' E 037°50'0 0.0
2018-Feb-13 09:58N 44°42' E 037°50'0 0.0
2018-Feb-13 09:28N 44°42' E 037°50'0 0.0
2018-Feb-13 08:58N 44°42' E 037°50'0 0.0
2018-Feb-13 08:28N 44°42' E 037°50'0 0.0
2018-Feb-13 07:58N 44°42' E 037°50'0 0.0
2018-Feb-13 07:28N 44°42' E 037°50'0 0.0
2018-Feb-13 06:58N 44°42' E 037°50'0 0.0
2018-Feb-13 06:28N 44°42' E 037°50'0 0.0
2018-Feb-13 05:58N 44°42' E 037°50'0 0.0
2018-Feb-13 05:28N 44°42' E 037°50'0 0.0
2018-Feb-13 04:58N 44°42' E 037°50'0 0.0
2018-Feb-13 04:28N 44°42' E 037°50'0 0.0
2018-Feb-13 04:01N 44°42' E 037°50'0 0.8
2018-Feb-13 03:31N 44°42' E 037°50'2 4.5
2018-Feb-13 03:00N 44°40' E 037°51'5 9.8
2018-Feb-13 02:31N 44°35' E 037°52'510.8
2018-Feb-13 02:01N 44°30' E 037°49'611.5
2018-Feb-13 01:30N 44°25' E 037°44'1 2.4
2018-Feb-13 00:59N 44°25' E 037°42'1 1.6
2018-Feb-13 00:28N 44°24' E 037°41'4 1.7
2018-Feb-12 22:03N 44°22' E 037°36'0 2.2
2018-Feb-12 22:00N 44°22' E 037°36'1 2.5
2018-Feb-12 21:30N 44°21' E 037°34'2 3.6
2018-Feb-12 20:58N 44°23' E 037°36'2 2.7
2018-Feb-12 20:19N 44°25' E 037°37'1 2.5
2018-Feb-12 19:47N 44°24' E 037°36'1 2.6
2018-Feb-12 19:29N 44°23' E 037°35'2 3.4
2018-Feb-12 18:58N 44°22' E 037°33'1 2.8
2018-Feb-12 18:31N 44°22' E 037°35'1 2.6
2018-Feb-12 18:00N 44°22' E 037°36'1 2.8
2018-Feb-12 17:30N 44°22' E 037°38'1 2.7
2018-Feb-12 17:00N 44°22' E 037°40'1 2.6
2018-Feb-12 16:29N 44°22' E 037°42'1 2.4
2018-Feb-12 15:59N 44°24' E 037°42'1 2.8
2018-Feb-12 15:30N 44°25' E 037°41'1 1.4
2018-Feb-12 14:59N 44°26' E 037°41'1 2.2
2018-Feb-12 14:29N 44°25' E 037°42'1 2.4
2018-Feb-12 14:01N 44°25' E 037°44'1 2.4
2018-Feb-12 13:30N 44°25' E 037°46'1 2.3
2018-Feb-12 13:01N 44°24' E 037°47'2 4.3
2018-Feb-12 12:31N 44°23' E 037°50'0 0.8
2018-Feb-12 12:00N 44°23' E 037°50'1 2.7
2018-Feb-12 11:30N 44°24' E 037°48'1 2.6
2018-Feb-12 11:00N 44°24' E 037°46'1 2.7
2018-Feb-12 10:30N 44°24' E 037°44'1 2.7
2018-Feb-12 10:00N 44°25' E 037°42'1 2.6
2018-Feb-12 09:30N 44°25' E 037°41'2 3.8
2018-Feb-12 09:00N 44°25' E 037°43'2 4.1
2018-Feb-12 08:30N 44°24' E 037°46'2 4.0
2018-Feb-12 08:01N 44°23' E 037°48'2 3.9
2018-Feb-12 07:30N 44°22' E 037°51'9 1.0
2018-Feb-11 22:42N 44°20' E 037°38'0 1.8
2018-Feb-11 22:27N 44°20' E 037°39'1 1.9
2018-Feb-11 21:59N 44°20' E 037°40'1 2.0
2018-Feb-11 21:30N 44°19' E 037°41'1 1.9
2018-Feb-11 20:56N 44°19' E 037°43'1 1.9
2018-Feb-11 20:27N 44°19' E 037°44'1 2.0
2018-Feb-11 20:01N 44°18' E 037°45'1 2.2
2018-Feb-11 19:26N 44°20' E 037°46'4 8.2
2018-Feb-11 18:56N 44°23' E 037°43'3 8.2
2018-Feb-11 18:30N 44°26' E 037°40'1 1.3
2018-Feb-11 17:54N 44°25' E 037°40'1 1.7
2018-Feb-11 17:30N 44°25' E 037°40'1 1.7
2018-Feb-11 16:45N 44°24' E 037°41'1 1.8
2018-Feb-11 16:26N 44°23' E 037°42'3 1.9
2018-Feb-11 14:53N 44°22' E 037°45'1 1.7
2018-Feb-11 14:26N 44°22' E 037°46'1 1.7
2018-Feb-11 13:57N 44°21' E 037°47'1 1.6
2018-Feb-11 13:30N 44°21' E 037°48'1 1.1
2018-Feb-11 13:00N 44°21' E 037°49'1 1.1
2018-Feb-11 12:29N 44°21' E 037°50'0 0.9
2018-Feb-11 12:00N 44°21' E 037°50'2 4.7
2018-Feb-11 11:30N 44°20' E 037°47'4 8.0
2018-Feb-11 11:00N 44°18' E 037°42'4 0.8
2018-Feb-11 05:34N 44°19' E 037°48'1 1.5
2018-Feb-11 05:04N 44°20' E 037°48'0 1.8
2018-Feb-11 05:00N 44°20' E 037°48'2 4.2
2018-Feb-11 04:30N 44°22' E 037°46'4 7.1
2018-Feb-11 04:00N 44°24' E 037°42'  

Dump ship's entire track history